createdAt,value
2018-07-10T00:02:48.378Z,49.90
2018-07-10T00:05:27.440Z,50.40
2018-07-10T00:09:30.217Z,49.50
2018-07-10T00:11:58.725Z,50.20
2018-07-10T00:14:27.255Z,49.30
2018-07-10T00:16:55.754Z,49.00
2018-07-10T00:19:24.286Z,49.60
2018-07-10T00:21:52.878Z,50.60
2018-07-10T00:24:21.433Z,49.40
2018-07-10T00:26:49.963Z,50.40
2018-07-10T00:29:18.846Z,49.90
2018-07-10T00:31:47.422Z,50.50
2018-07-10T00:34:15.997Z,51.20
2018-07-10T00:36:44.487Z,51.80
2018-07-10T00:39:13.077Z,51.40
2018-07-10T00:41:42.171Z,52.40
2018-07-10T00:44:10.743Z,51.50
2018-07-10T00:46:40.872Z,51.70
2018-07-10T00:49:09.399Z,51.80
2018-07-10T00:51:39.677Z,52.00
2018-07-10T00:54:08.712Z,51.70
2018-07-10T00:56:37.914Z,51.30
2018-07-10T00:59:07.271Z,51.40
2018-07-10T01:01:36.465Z,51.80
2018-07-10T01:04:05.005Z,51.60
2018-07-10T01:06:33.540Z,51.90
2018-07-10T01:09:02.122Z,51.60
2018-07-10T01:11:30.678Z,51.80
2018-07-10T01:13:59.288Z,52.30
2018-07-10T01:16:34.267Z,52.20
2018-07-10T01:19:06.118Z,52.20
2018-07-10T01:21:34.588Z,51.80
2018-07-10T01:24:04.809Z,51.90
2018-07-10T01:26:36.061Z,52.10
2018-07-10T01:29:10.718Z,52.20
2018-07-10T01:31:42.651Z,52.10
2018-07-10T01:34:11.285Z,52.30
2018-07-10T01:36:39.793Z,52.20
2018-07-10T01:39:08.593Z,52.30
2018-07-10T01:41:37.494Z,52.30
2018-07-10T01:44:06.252Z,52.20
2018-07-10T01:46:35.048Z,52.20
2018-07-10T01:49:03.967Z,52.20
2018-07-10T01:51:33.628Z,52.20
2018-07-10T01:54:02.218Z,52.10
2018-07-10T01:56:31.175Z,52.10
2018-07-10T01:58:59.885Z,52.10
2018-07-10T02:01:28.433Z,52.10
2018-07-10T02:03:58.348Z,52.10
2018-07-10T02:06:27.196Z,52.10
2018-07-10T02:08:56.308Z,52.10
2018-07-10T02:11:25.180Z,52.60
2018-07-10T02:13:53.783Z,52.90
2018-07-10T02:16:22.753Z,52.90
2018-07-10T02:18:51.681Z,52.90
2018-07-10T02:21:20.241Z,53.20
2018-07-10T02:23:48.814Z,53.50
2018-07-10T02:26:22.068Z,53.70
2018-07-10T02:28:51.939Z,54.00
2018-07-10T02:31:20.911Z,53.60
2018-07-10T02:33:50.642Z,53.80
2018-07-10T02:36:19.811Z,54.00
2018-07-10T02:38:49.489Z,54.00
2018-07-10T02:41:19.461Z,54.60
2018-07-10T02:43:58.609Z,52.60
2018-07-10T02:46:28.605Z,53.90
2018-07-10T02:49:03.494Z,52.90
2018-07-10T02:51:32.738Z,53.80
2018-07-10T02:54:01.441Z,53.70
2018-07-10T02:56:30.561Z,54.00
2018-07-10T02:59:02.413Z,54.10
2018-07-10T03:01:30.966Z,53.40
2018-07-10T03:04:00.589Z,54.60
2018-07-10T03:06:29.576Z,54.50
2018-07-10T03:08:58.116Z,54.20
2018-07-10T03:11:26.705Z,54.70
2018-07-10T03:13:55.334Z,55.50
2018-07-10T03:16:23.883Z,55.50
2018-07-10T03:18:52.470Z,56.50
2018-07-10T03:21:20.986Z,57.00
2018-07-10T03:23:49.506Z,58.00
2018-07-10T03:26:17.993Z,58.00
2018-07-10T03:28:46.539Z,57.90
2018-07-10T03:31:15.168Z,59.00
2018-07-10T03:33:43.956Z,59.70
2018-07-10T03:36:12.553Z,60.30
2018-07-10T03:38:41.105Z,60.40
2018-07-10T03:41:09.693Z,60.90
2018-07-10T03:43:38.281Z,61.80
2018-07-10T03:46:06.977Z,61.50
2018-07-10T03:48:35.521Z,61.70
2018-07-10T03:51:04.135Z,61.50
2018-07-10T03:53:32.702Z,61.00
2018-07-10T03:56:01.326Z,61.50
2018-07-10T03:58:29.884Z,60.00
2018-07-10T04:00:59.891Z,60.50
2018-07-10T04:03:32.855Z,61.90
2018-07-10T04:06:02.220Z,62.00
2018-07-10T04:08:31.158Z,61.80
2018-07-10T04:11:01.263Z,62.40
2018-07-10T04:13:29.861Z,61.20
2018-07-10T04:16:02.084Z,61.40
2018-07-10T04:18:32.781Z,61.00
2018-07-10T04:23:38.225Z,63.60
2018-07-10T04:26:19.524Z,64.60
2018-07-10T04:28:59.682Z,70.70
2018-07-10T04:32:07.137Z,73.10
2018-07-10T04:34:35.698Z,77.00
2018-07-10T04:37:08.717Z,80.00
2018-07-10T04:39:38.794Z,81.30
2018-07-10T04:42:24.434Z,84.00
2018-07-10T04:45:00.105Z,83.00
2018-07-10T04:48:06.542Z,81.70
2018-07-10T04:50:47.704Z,86.10
2018-07-10T04:53:21.637Z,83.70
2018-07-10T04:55:50.206Z,84.60
2018-07-10T04:58:20.585Z,90.00
2018-07-10T05:00:50.629Z,91.00
2018-07-10T05:03:20.344Z,91.40
2018-07-10T05:05:48.955Z,91.40
2018-07-10T05:08:19.537Z,90.80
2018-07-10T05:10:48.471Z,90.90
2018-07-10T05:13:17.863Z,91.10
2018-07-10T05:15:50.530Z,87.70
2018-07-10T05:18:19.131Z,87.60
2018-07-10T05:20:47.690Z,91.00
2018-07-10T05:23:17.113Z,91.90
2018-07-10T05:25:50.550Z,93.00
2018-07-10T05:28:19.564Z,92.70
2018-07-10T05:30:48.122Z,94.20
2018-07-10T05:33:17.890Z,94.60
2018-07-10T05:35:46.516Z,93.80
2018-07-10T05:38:17.278Z,94.00
2018-07-10T05:40:45.866Z,93.60
2018-07-10T05:43:15.704Z,94.90
2018-07-10T05:45:44.752Z,93.90
2018-07-10T05:48:14.109Z,95.50
2018-07-10T05:50:42.684Z,95.90
2018-07-10T05:53:12.158Z,97.00
2018-07-10T05:55:44.503Z,97.20
2018-07-10T05:58:13.290Z,97.40
2018-07-10T06:00:41.877Z,97.50
2018-07-10T06:03:10.350Z,97.10
2018-07-10T06:05:38.910Z,96.80
2018-07-10T06:08:07.415Z,95.60
2018-07-10T06:10:36.090Z,96.30
2018-07-10T06:13:04.963Z,97.20
2018-07-10T06:15:33.580Z,98.10
2018-07-10T06:18:02.131Z,98.10
2018-07-10T06:20:30.753Z,98.90
2018-07-10T06:22:59.322Z,99.20
2018-07-10T06:25:33.676Z,99.20
2018-07-10T06:28:08.235Z,99.90
2018-07-10T06:30:37.978Z,99.90
2018-07-10T06:33:28.205Z,99.90
2018-07-10T06:36:09.548Z,99.90
2018-07-10T06:38:42.064Z,99.90
2018-07-10T06:41:11.846Z,99.90
2018-07-10T06:43:47.624Z,99.90
2018-07-10T06:46:17.894Z,99.90
2018-07-10T06:48:50.035Z,99.90
2018-07-10T06:51:19.527Z,99.90
2018-07-10T06:53:50.389Z,99.90
2018-07-10T06:56:24.227Z,99.90
2018-07-10T06:58:52.719Z,99.90
2018-07-10T07:01:21.682Z,99.90
2018-07-10T07:03:54.148Z,99.90
2018-07-10T07:06:23.122Z,99.90
2018-07-10T07:08:52.485Z,99.90
2018-07-10T07:11:21.029Z,99.90
2018-07-10T07:13:49.549Z,99.90
2018-07-10T07:16:18.099Z,99.90
2018-07-10T07:18:46.605Z,99.90
2018-07-10T07:21:15.163Z,99.90
2018-07-10T07:23:43.807Z,99.90
2018-07-10T07:26:12.375Z,99.90
2018-07-10T07:28:40.938Z,99.90
2018-07-10T07:31:09.809Z,99.90
2018-07-10T07:33:38.352Z,99.90
2018-07-10T07:36:07.000Z,99.90
2018-07-10T07:38:36.182Z,99.90
2018-07-10T07:41:04.939Z,99.90
2018-07-10T07:43:35.239Z,99.90
2018-07-10T07:48:31.974Z,99.90
2018-07-10T07:51:01.478Z,99.90
2018-07-10T07:53:30.902Z,99.20
2018-07-10T07:55:59.508Z,99.40
2018-07-10T07:58:28.105Z,99.60
2018-07-10T08:00:56.698Z,98.70
2018-07-10T08:03:25.330Z,99.90
2018-07-10T08:05:53.914Z,99.90
2018-07-10T08:08:22.711Z,99.90
2018-07-10T08:10:51.738Z,99.90
2018-07-10T08:13:20.261Z,99.90
2018-07-10T08:15:48.834Z,99.90
2018-07-10T08:18:17.438Z,99.90
2018-07-10T08:20:46.210Z,99.90
2018-07-10T08:23:15.394Z,99.90
2018-07-10T08:25:43.955Z,99.90
2018-07-10T08:28:12.512Z,99.90
2018-07-10T08:30:41.330Z,99.90
2018-07-10T08:33:09.969Z,99.90
2018-07-10T08:35:38.498Z,99.90
2018-07-10T08:38:07.116Z,99.90
2018-07-10T08:40:35.654Z,99.90
2018-07-10T08:43:04.706Z,99.90
2018-07-10T08:45:33.342Z,99.90
2018-07-10T08:48:02.877Z,99.90
2018-07-10T08:50:31.613Z,99.90
2018-07-10T08:53:00.856Z,99.90
2018-07-10T08:55:29.526Z,99.90
2018-07-10T08:57:58.125Z,99.60
2018-07-10T09:00:26.912Z,99.90
2018-07-10T09:02:55.495Z,99.90
2018-07-10T09:05:24.066Z,99.90
2018-07-10T09:07:52.576Z,99.90
2018-07-10T09:10:21.301Z,99.90
2018-07-10T09:12:49.855Z,99.90
2018-07-10T09:15:18.455Z,99.90
2018-07-10T09:17:47.037Z,99.90
2018-07-10T09:20:22.145Z,99.90
2018-07-10T09:22:50.701Z,99.90
2018-07-10T09:25:19.322Z,99.90
2018-07-10T09:27:47.866Z,99.90
2018-07-10T09:30:17.018Z,99.90
2018-07-10T09:32:46.036Z,99.90
2018-07-10T09:35:14.625Z,99.90
2018-07-10T09:37:44.707Z,99.90
2018-07-10T09:40:14.749Z,99.90
2018-07-10T09:42:46.291Z,98.40
2018-07-10T09:45:15.703Z,98.10
2018-07-10T09:47:44.238Z,99.20
2018-07-10T09:50:12.806Z,98.60
2018-07-10T09:52:41.610Z,98.90
2018-07-10T09:55:10.145Z,97.10
2018-07-10T10:00:07.151Z,98.90
2018-07-10T10:02:36.391Z,99.20
2018-07-10T10:05:06.862Z,99.80
2018-07-10T10:07:35.512Z,99.40
2018-07-10T10:10:06.781Z,99.40
2018-07-10T10:12:35.335Z,99.70
2018-07-10T10:15:03.882Z,99.20
2018-07-10T10:17:32.621Z,98.30
2018-07-10T10:20:01.191Z,98.70
2018-07-10T10:22:31.520Z,99.00
2018-07-10T10:25:00.921Z,98.50
2018-07-10T10:27:30.470Z,98.90
2018-07-10T10:30:00.136Z,99.10
2018-07-10T10:32:29.062Z,98.60
2018-07-10T10:34:57.983Z,96.90
2018-07-10T10:37:26.858Z,98.30
2018-07-10T10:39:56.240Z,98.10
2018-07-10T10:42:26.405Z,98.40
2018-07-10T10:44:57.112Z,98.00
2018-07-10T10:47:25.766Z,98.40
2018-07-10T10:49:54.711Z,98.40
2018-07-10T10:52:25.146Z,96.60
2018-07-10T10:54:53.716Z,95.90
2018-07-10T10:57:23.662Z,96.60
2018-07-10T11:02:21.735Z,97.00
2018-07-10T11:04:52.254Z,97.40
2018-07-10T11:07:20.989Z,96.80
2018-07-10T11:09:50.006Z,97.10
2018-07-10T11:12:19.448Z,97.30
2018-07-10T11:14:48.031Z,97.20
2018-07-10T11:17:29.539Z,96.60
2018-07-10T11:20:13.495Z,96.60
2018-07-10T11:22:52.357Z,96.30
2018-07-10T11:25:21.338Z,96.60
2018-07-10T11:28:10.444Z,96.60
2018-07-10T11:30:39.176Z,96.80
2018-07-10T11:33:08.981Z,97.70
2018-07-10T11:35:37.957Z,96.10
2018-07-10T11:38:10.021Z,96.20
2018-07-10T11:40:42.326Z,96.80
2018-07-10T11:43:11.651Z,96.80
2018-07-10T11:45:40.805Z,96.10
2018-07-10T11:48:10.510Z,95.90
2018-07-10T11:53:07.805Z,94.80
2018-07-10T11:55:37.071Z,95.20
2018-07-10T11:58:07.056Z,95.20
2018-07-10T12:00:36.592Z,95.20
2018-07-10T12:03:06.340Z,94.30
2018-07-10T12:05:37.194Z,92.50
2018-07-10T12:08:06.539Z,93.20
2018-07-10T12:10:36.291Z,93.10
2018-07-10T12:13:05.769Z,93.80
2018-07-10T12:18:02.907Z,92.70
2018-07-10T12:20:41.063Z,93.00
2018-07-10T12:23:11.533Z,93.20
2018-07-10T12:25:43.981Z,92.90
2018-07-10T12:28:13.547Z,93.00
2018-07-10T12:30:42.929Z,92.70
2018-07-10T12:33:11.746Z,91.30
2018-07-10T12:35:40.258Z,92.00
2018-07-10T12:38:09.236Z,90.40
2018-07-10T12:40:37.806Z,91.90
2018-07-10T12:43:06.521Z,91.40
2018-07-10T12:45:35.392Z,90.50
2018-07-10T12:48:04.505Z,90.40
2018-07-10T12:50:33.079Z,90.40
2018-07-10T12:53:01.652Z,88.70
2018-07-10T12:55:30.201Z,89.80
2018-07-10T12:57:58.881Z,90.40
2018-07-10T13:00:29.439Z,90.20
2018-07-10T13:02:59.217Z,90.70
2018-07-10T13:05:30.044Z,90.90
2018-07-10T13:07:59.111Z,90.60
2018-07-10T13:10:27.691Z,91.00
2018-07-10T13:12:56.280Z,91.30
2018-07-10T13:15:24.887Z,91.10
2018-07-10T13:17:54.095Z,91.20
2018-07-10T13:20:22.692Z,90.90
2018-07-10T13:22:51.367Z,91.30
2018-07-10T13:25:19.950Z,90.90
2018-07-10T13:27:49.286Z,90.80
2018-07-10T13:30:17.880Z,91.30
2018-07-10T13:32:46.697Z,91.20
2018-07-10T13:35:15.816Z,91.50
2018-07-10T13:37:46.276Z,91.70
2018-07-10T13:40:15.017Z,91.70
2018-07-10T13:42:50.162Z,91.70
2018-07-10T13:45:20.067Z,91.70
2018-07-10T13:47:49.121Z,92.00
2018-07-10T13:50:21.083Z,91.80
2018-07-10T13:52:49.917Z,91.70
2018-07-10T13:55:18.687Z,91.90
2018-07-10T13:57:54.518Z,91.50
2018-07-10T14:00:23.137Z,90.90
2018-07-10T14:02:54.216Z,91.50
2018-07-10T14:05:24.601Z,91.10
2018-07-10T14:07:53.429Z,91.60
2018-07-10T14:10:22.729Z,90.80
2018-07-10T14:12:51.319Z,91.10
2018-07-10T14:15:19.936Z,90.80
2018-07-10T14:17:48.799Z,91.20
2018-07-10T14:22:45.782Z,90.90
2018-07-10T14:25:14.379Z,91.60
2018-07-10T14:27:49.318Z,91.60
2018-07-10T14:30:18.048Z,91.60
2018-07-10T14:32:46.662Z,91.90
2018-07-10T14:35:15.209Z,91.90
2018-07-10T14:37:44.514Z,92.00
2018-07-10T14:40:13.117Z,91.60
2018-07-10T14:45:09.967Z,92.10
2018-07-10T14:47:38.874Z,92.00
2018-07-10T14:50:07.488Z,92.20
2018-07-10T14:52:36.001Z,92.10
2018-07-10T14:55:04.577Z,91.70
2018-07-10T14:57:33.140Z,92.10
2018-07-10T15:00:02.051Z,92.00
2018-07-10T15:02:30.578Z,92.40
2018-07-10T15:04:59.149Z,92.80
2018-07-10T15:07:27.709Z,92.50
2018-07-10T15:09:56.246Z,93.00
2018-07-10T15:12:24.787Z,92.40
2018-07-10T15:14:53.932Z,92.80
2018-07-10T15:17:27.568Z,93.10
2018-07-10T15:19:56.118Z,92.60
2018-07-10T15:22:24.625Z,93.20
2018-07-10T15:24:53.225Z,93.40
2018-07-10T15:27:21.761Z,92.70
2018-07-10T15:29:50.359Z,92.90
2018-07-10T15:32:18.993Z,92.90
2018-07-10T15:34:47.766Z,93.30
2018-07-10T15:37:16.378Z,93.60
2018-07-10T15:39:44.983Z,92.60
2018-07-10T15:42:13.617Z,92.80
2018-07-10T15:44:42.128Z,93.30
2018-07-10T15:47:10.758Z,92.50
2018-07-10T15:49:39.286Z,93.30
2018-07-10T15:52:07.882Z,92.70
2018-07-10T15:54:36.463Z,93.00
2018-07-10T15:57:05.238Z,92.90
2018-07-10T15:59:33.828Z,92.50
2018-07-10T16:02:02.384Z,92.60
2018-07-10T16:04:31.006Z,91.80
2018-07-10T16:06:59.603Z,91.90
2018-07-10T16:09:28.244Z,91.50
2018-07-10T16:12:00.529Z,91.40
2018-07-10T16:14:29.773Z,91.40
2018-07-10T16:16:58.596Z,91.40
2018-07-10T16:19:37.256Z,90.70
2018-07-10T16:22:11.140Z,91.80
2018-07-10T16:24:44.519Z,92.10
2018-07-10T16:27:15.850Z,92.00
2018-07-10T16:29:44.454Z,91.90
2018-07-10T16:32:13.020Z,91.70
2018-07-10T16:34:41.665Z,91.60
2018-07-10T16:37:10.246Z,91.60
2018-07-10T16:39:39.040Z,91.60
2018-07-10T16:42:12.841Z,91.60
2018-07-10T16:44:43.373Z,91.60
2018-07-10T16:47:29.773Z,91.50
2018-07-10T16:50:03.010Z,91.80
2018-07-10T16:52:39.499Z,91.50
2018-07-10T16:55:08.418Z,91.70
2018-07-10T16:57:37.021Z,91.50
2018-07-10T17:00:05.827Z,91.50
2018-07-10T17:02:34.808Z,91.40
2018-07-10T17:05:03.395Z,91.70
2018-07-10T17:07:31.988Z,92.10
2018-07-10T17:10:00.549Z,91.70
2018-07-10T17:12:29.183Z,91.90
2018-07-10T17:14:58.984Z,91.70
2018-07-10T17:17:27.825Z,92.30
2018-07-10T17:19:56.740Z,92.80
2018-07-10T17:22:25.730Z,92.50
2018-07-10T17:24:55.656Z,92.70
2018-07-10T17:27:31.150Z,92.80
2018-07-10T17:30:01.134Z,92.80
2018-07-10T17:32:30.087Z,92.80
2018-07-10T17:34:59.506Z,92.60
2018-07-10T17:37:28.841Z,92.70
2018-07-10T17:40:01.169Z,92.50
2018-07-10T17:42:29.969Z,92.20
2018-07-10T17:44:58.598Z,92.10
2018-07-10T17:47:27.281Z,91.90
2018-07-10T17:49:55.855Z,92.20
2018-07-10T17:52:24.518Z,91.70
2018-07-10T17:54:53.691Z,91.60
2018-07-10T17:57:23.102Z,91.70
2018-07-10T17:59:51.760Z,92.00
2018-07-10T18:02:20.379Z,92.40
2018-07-10T18:04:49.329Z,92.10
2018-07-10T18:07:18.431Z,92.20
2018-07-10T18:09:47.071Z,91.70
2018-07-10T18:12:15.774Z,92.00
2018-07-10T18:14:44.361Z,92.30
2018-07-10T18:17:12.971Z,92.20
2018-07-10T18:19:41.832Z,92.20
2018-07-10T18:22:10.676Z,92.30
2018-07-10T18:24:39.462Z,91.70
2018-07-10T18:27:08.622Z,92.10
2018-07-10T18:29:37.343Z,92.30
2018-07-10T18:32:06.321Z,92.90
2018-07-10T18:34:35.192Z,92.70
2018-07-10T18:37:03.755Z,92.80
2018-07-10T18:39:32.332Z,92.40
2018-07-10T18:42:01.491Z,92.20
2018-07-10T18:44:30.058Z,92.30
2018-07-10T18:46:59.049Z,93.00
2018-07-10T18:49:28.133Z,93.20
2018-07-10T18:51:56.726Z,93.40
2018-07-10T18:54:34.642Z,93.90
2018-07-10T18:57:08.946Z,93.90
2018-07-10T18:59:37.977Z,94.00
2018-07-10T19:02:12.441Z,94.30
2018-07-10T19:05:04.582Z,94.10
2018-07-10T19:07:34.795Z,94.00
2018-07-10T19:10:03.419Z,93.70
2018-07-10T19:12:32.023Z,93.50
2018-07-10T19:15:00.945Z,93.70
2018-07-10T19:17:30.865Z,93.90
2018-07-10T19:20:06.713Z,94.40
2018-07-10T19:23:00.563Z,94.50
2018-07-10T19:25:29.164Z,94.50
2018-07-10T19:27:59.634Z,94.50
2018-07-10T19:30:36.277Z,94.50
2018-07-10T19:33:05.551Z,94.40
2018-07-10T19:35:34.111Z,94.40
2018-07-10T19:38:03.307Z,95.00
2018-07-10T19:40:31.909Z,95.20
2018-07-10T19:43:00.519Z,95.60
2018-07-10T19:45:29.147Z,95.30
2018-07-10T19:47:57.927Z,95.10
2018-07-10T19:50:33.204Z,95.40
2018-07-10T19:53:02.298Z,95.80
2018-07-10T19:55:31.832Z,95.80
2018-07-10T19:58:38.879Z,96.20
2018-07-10T20:01:17.270Z,96.20
2018-07-10T20:03:55.509Z,96.00
2018-07-10T20:06:28.718Z,96.40
2018-07-10T20:09:01.451Z,96.00
2018-07-10T20:11:39.999Z,96.10
2018-07-10T20:14:09.607Z,96.10
2018-07-10T20:16:51.702Z,96.10
2018-07-10T20:19:54.953Z,96.20
2018-07-10T20:22:34.726Z,96.10
2018-07-10T20:25:07.605Z,96.10
2018-07-10T20:27:41.289Z,96.10
2018-07-10T20:30:34.235Z,96.10
2018-07-10T20:33:12.489Z,96.00
2018-07-10T20:35:49.147Z,96.00
2018-07-10T20:38:18.481Z,96.00
2018-07-10T20:40:47.919Z,96.80
2018-07-10T20:43:18.938Z,96.70
2018-07-10T20:45:54.220Z,96.40
2018-07-10T20:49:00.925Z,96.70
2018-07-10T20:51:32.408Z,96.80
2018-07-10T20:54:16.095Z,96.50
2018-07-10T20:56:57.826Z,96.60
2018-07-10T20:59:34.505Z,96.90
2018-07-10T21:02:06.739Z,96.70
2018-07-10T21:05:11.997Z,96.80
2018-07-10T21:07:52.416Z,96.70
2018-07-10T21:10:54.246Z,96.50
2018-07-10T21:13:45.410Z,96.70
2018-07-10T21:16:19.649Z,96.90
2018-07-10T21:19:06.850Z,97.00
2018-07-10T21:21:45.135Z,97.10
2018-07-10T21:24:31.467Z,96.90
2018-07-10T21:27:05.307Z,96.50
2018-07-10T21:30:14.305Z,96.40
2018-07-10T21:32:55.277Z,96.50
2018-07-10T21:35:26.229Z,96.20
2018-07-10T21:41:06.977Z,96.30
2018-07-10T21:43:46.400Z,96.20
2018-07-10T21:49:00.573Z,96.60
2018-07-10T21:51:29.729Z,96.40
2018-07-10T21:53:58.959Z,96.10
2018-07-10T21:56:27.799Z,96.40
2018-07-10T22:01:52.545Z,96.30
2018-07-10T22:04:23.710Z,96.50
2018-07-10T22:06:54.281Z,96.20
2018-07-10T22:09:25.810Z,96.10
2018-07-10T22:11:54.847Z,96.40
2018-07-10T22:14:24.210Z,96.50
2018-07-10T22:16:52.799Z,96.70
2018-07-10T22:19:26.328Z,96.90
2018-07-10T22:21:55.887Z,96.10
2018-07-10T22:24:25.870Z,96.00
2018-07-10T22:26:56.981Z,96.10
2018-07-10T22:29:30.954Z,96.20
2018-07-10T22:32:00.793Z,96.30
2018-07-10T22:37:00.007Z,96.50
2018-07-10T22:41:59.776Z,96.50
2018-07-10T22:44:31.300Z,96.50
2018-07-10T22:47:00.638Z,95.90
2018-07-10T22:49:29.459Z,96.30
2018-07-10T22:52:00.982Z,96.80
2018-07-10T22:54:30.310Z,96.60
2018-07-10T22:56:58.899Z,96.30
2018-07-10T22:59:27.500Z,96.50
2018-07-10T23:01:56.097Z,96.10
2018-07-10T23:04:24.746Z,96.10
2018-07-10T23:06:53.345Z,96.00
2018-07-10T23:09:24.920Z,96.30
2018-07-10T23:11:53.524Z,96.60
2018-07-10T23:14:22.077Z,96.70
2018-07-10T23:16:50.674Z,96.80
2018-07-10T23:19:19.226Z,96.60
2018-07-10T23:21:47.913Z,96.60
2018-07-10T23:24:16.522Z,95.90
2018-07-10T23:26:45.223Z,96.00
2018-07-10T23:29:13.762Z,96.00
2018-07-10T23:31:44.785Z,96.10
2018-07-10T23:34:18.254Z,96.10
2018-07-10T23:36:52.338Z,96.30
2018-07-10T23:39:27.825Z,96.30
2018-07-10T23:42:30.789Z,95.90
2018-07-10T23:45:02.172Z,95.60
2018-07-10T23:47:32.218Z,96.10
2018-07-10T23:50:06.778Z,96.40
2018-07-10T23:53:45.427Z,96.40
2018-07-10T23:56:14.093Z,96.10
2018-07-10T23:58:42.622Z,96.30
